createdAt,value
2018-09-04T00:00:51.728Z,0.00
2018-09-04T00:01:51.751Z,0.00
2018-09-04T00:02:51.770Z,0.00
2018-09-04T00:03:51.792Z,0.00
2018-09-04T00:04:51.814Z,0.00
2018-09-04T00:05:51.841Z,0.00
2018-09-04T00:06:51.856Z,0.00
2018-09-04T00:07:51.879Z,0.00
2018-09-04T00:08:51.895Z,0.00
2018-09-04T00:09:51.916Z,0.00
2018-09-04T00:10:51.934Z,0.00
2018-09-04T00:11:51.957Z,0.00
2018-09-04T00:12:51.978Z,0.00
2018-09-04T00:13:52.003Z,0.00
2018-09-04T00:14:52.022Z,0.00
2018-09-04T00:15:52.041Z,0.00
2018-09-04T00:16:52.069Z,0.00
2018-09-04T00:17:52.086Z,0.00
2018-09-04T00:18:52.105Z,0.00
2018-09-04T00:19:52.124Z,0.00
2018-09-04T00:20:52.145Z,0.00
2018-09-04T00:21:52.166Z,0.00
2018-09-04T00:22:52.188Z,0.00
2018-09-04T00:23:52.207Z,0.00
2018-09-04T00:24:52.247Z,0.00
2018-09-04T00:25:52.250Z,0.00
2018-09-04T00:26:52.271Z,0.00
2018-09-04T00:27:52.290Z,0.00
2018-09-04T00:28:52.311Z,0.00
2018-09-04T00:29:52.332Z,0.00
2018-09-04T00:30:52.353Z,0.00
2018-09-04T00:31:52.373Z,0.00
2018-09-04T00:32:52.394Z,0.00
2018-09-04T00:33:52.413Z,0.00
2018-09-04T00:34:52.440Z,0.00
2018-09-04T00:35:52.457Z,0.00
2018-09-04T00:36:52.480Z,0.00
2018-09-04T00:37:52.505Z,0.00
2018-09-04T00:38:52.520Z,0.00
2018-09-04T00:39:52.541Z,0.00
2018-09-04T00:40:52.560Z,0.00
2018-09-04T00:41:52.582Z,0.00
2018-09-04T00:42:52.603Z,0.00
2018-09-04T00:43:52.627Z,0.00
2018-09-04T00:44:52.645Z,0.00
2018-09-04T00:45:52.665Z,0.00
2018-09-04T00:46:52.717Z,0.00
2018-09-04T00:47:52.709Z,0.00
2018-09-04T00:48:52.729Z,0.00
2018-09-04T00:49:52.750Z,0.00
2018-09-04T00:50:52.778Z,0.00
2018-09-04T00:51:52.791Z,0.00
2018-09-04T00:52:52.813Z,0.00
2018-09-04T00:53:52.843Z,0.00
2018-09-04T00:54:52.852Z,0.00
2018-09-04T00:55:52.875Z,0.00
2018-09-04T00:56:52.894Z,0.00
2018-09-04T00:57:52.931Z,0.00
2018-09-04T00:58:52.969Z,0.00
2018-09-04T00:59:52.958Z,0.00
2018-09-04T01:00:52.980Z,0.00
2018-09-04T01:01:53.003Z,0.00
2018-09-04T01:02:53.019Z,0.00
2018-09-04T01:03:53.040Z,0.00
2018-09-04T01:04:53.069Z,0.00
2018-09-04T01:05:53.083Z,0.00
2018-09-04T01:06:53.103Z,0.00
2018-09-04T01:07:53.121Z,0.00
2018-09-04T01:08:53.144Z,0.00
2018-09-04T01:09:53.165Z,0.00
2018-09-04T01:10:53.186Z,0.00
2018-09-04T01:11:53.209Z,0.00
2018-09-04T01:12:53.225Z,0.00
2018-09-04T01:13:53.255Z,0.00
2018-09-04T01:14:53.268Z,0.00
2018-09-04T01:15:53.306Z,0.00
2018-09-04T01:16:53.309Z,0.00
2018-09-04T01:17:53.367Z,0.00
2018-09-04T01:18:53.354Z,0.00
2018-09-04T01:19:53.373Z,0.00
2018-09-04T01:20:53.394Z,0.00
2018-09-04T01:21:53.414Z,0.00
2018-09-04T01:22:53.434Z,0.00
2018-09-04T01:23:53.457Z,0.00
2018-09-04T01:24:53.481Z,0.00
2018-09-04T01:25:53.500Z,0.00
2018-09-04T01:26:53.516Z,0.00
2018-09-04T01:27:53.695Z,0.00
2018-09-04T01:28:53.564Z,0.00
2018-09-04T01:29:53.599Z,0.00
2018-09-04T01:30:53.601Z,0.00
2018-09-04T01:31:53.622Z,0.00
2018-09-04T01:32:53.642Z,0.00
2018-09-04T01:33:53.661Z,0.00
2018-09-04T01:34:53.684Z,0.00
2018-09-04T01:35:53.708Z,0.00
2018-09-04T01:36:53.725Z,0.00
2018-09-04T01:37:53.746Z,0.00
2018-09-04T01:38:53.765Z,0.00
2018-09-04T01:39:53.793Z,0.00
2018-09-04T01:40:53.826Z,0.00
2018-09-04T01:41:53.834Z,0.00
2018-09-04T01:42:53.856Z,0.00
2018-09-04T01:43:53.881Z,0.00
2018-09-04T01:44:53.893Z,0.00
2018-09-04T01:45:53.914Z,0.00
2018-09-04T01:46:53.935Z,0.00
2018-09-04T01:47:53.955Z,0.00
2018-09-04T01:48:53.974Z,0.00
2018-09-04T01:49:53.997Z,0.00
2018-09-04T01:50:54.018Z,0.00
2018-09-04T01:51:54.036Z,0.00
2018-09-04T01:52:54.062Z,0.00
2018-09-04T01:53:54.080Z,0.00
2018-09-04T01:54:54.110Z,0.00
2018-09-04T01:55:54.121Z,0.00
2018-09-04T01:56:54.186Z,0.00
2018-09-04T01:57:54.161Z,0.00
2018-09-04T01:58:54.183Z,0.00
2018-09-04T01:59:54.204Z,0.00
2018-09-04T02:00:54.231Z,0.00
2018-09-04T02:01:54.248Z,0.00
2018-09-04T02:02:54.266Z,0.00
2018-09-04T02:03:54.344Z,0.00
2018-09-04T02:04:54.450Z,0.00
2018-09-04T02:05:54.407Z,0.00
2018-09-04T02:06:54.549Z,0.00
2018-09-04T02:07:54.443Z,0.00
2018-09-04T02:08:54.421Z,0.00
2018-09-04T02:09:54.491Z,0.00
2018-09-04T02:10:54.623Z,0.00
2018-09-04T02:11:54.475Z,0.00
2018-09-04T02:12:54.608Z,0.00
2018-09-04T02:13:54.513Z,0.00
2018-09-04T02:14:54.534Z,0.00
2018-09-04T02:15:54.544Z,0.00
2018-09-04T02:16:54.582Z,0.00
2018-09-04T02:17:54.584Z,0.00
2018-09-04T02:18:54.670Z,0.00
2018-09-04T02:19:54.624Z,0.00
2018-09-04T02:20:54.644Z,0.00
2018-09-04T02:21:54.664Z,0.00
2018-09-04T02:22:54.686Z,0.00
2018-09-04T02:23:54.711Z,0.00
2018-09-04T02:24:54.730Z,0.00
2018-09-04T02:25:54.752Z,0.00
2018-09-04T02:26:54.770Z,0.00
2018-09-04T02:27:54.793Z,0.00
2018-09-04T02:28:54.808Z,0.00
2018-09-04T02:29:54.967Z,0.00
2018-09-04T02:30:54.848Z,0.00
2018-09-04T02:31:54.871Z,0.00
2018-09-04T02:32:54.893Z,0.00
2018-09-04T02:33:54.911Z,0.00
2018-09-04T02:34:54.940Z,0.00
2018-09-04T02:35:54.956Z,0.00
2018-09-04T02:36:54.972Z,0.00
2018-09-04T02:37:54.995Z,0.00
2018-09-04T02:38:55.018Z,0.00
2018-09-04T02:39:55.036Z,0.00
2018-09-04T02:40:55.055Z,0.00
2018-09-04T02:41:55.079Z,0.00
2018-09-04T02:42:55.099Z,0.00
2018-09-04T02:43:55.120Z,0.00
2018-09-04T02:44:55.141Z,0.00
2018-09-04T02:45:55.172Z,0.00
2018-09-04T02:46:55.188Z,0.00
2018-09-04T02:47:55.206Z,0.00
2018-09-04T02:48:55.223Z,0.00
2018-09-04T02:49:55.245Z,0.00
2018-09-04T02:50:55.263Z,0.00
2018-09-04T02:51:55.292Z,0.00
2018-09-04T02:52:55.308Z,0.00
2018-09-04T02:53:55.328Z,0.00
2018-09-04T02:54:55.344Z,0.00
2018-09-04T02:55:55.367Z,0.00
2018-09-04T02:56:55.390Z,0.00
2018-09-04T02:57:55.410Z,0.00
2018-09-04T02:58:55.430Z,0.00
2018-09-04T02:59:55.450Z,0.00
2018-09-04T03:00:55.471Z,0.00
2018-09-04T03:01:55.497Z,0.00
2018-09-04T03:02:55.511Z,0.00
2018-09-04T03:03:55.532Z,0.00
2018-09-04T03:04:55.555Z,0.00
2018-09-04T03:05:55.573Z,0.00
2018-09-04T03:06:55.603Z,0.00
2018-09-04T03:07:55.617Z,0.00
2018-09-04T03:08:55.637Z,0.00
2018-09-04T03:09:55.654Z,0.00
2018-09-04T03:10:55.676Z,0.00
2018-09-04T03:11:55.706Z,0.00
2018-09-04T03:12:55.715Z,0.00
2018-09-04T03:13:55.787Z,0.00
2018-09-04T03:14:55.829Z,0.00
2018-09-04T03:15:55.789Z,0.00
2018-09-04T03:16:55.800Z,0.00
2018-09-04T03:17:55.819Z,0.00
2018-09-04T03:18:55.840Z,0.00
2018-09-04T03:19:55.861Z,0.00
2018-09-04T03:20:55.886Z,0.00
2018-09-04T03:21:55.902Z,0.00
2018-09-04T03:22:55.941Z,0.00
2018-09-04T03:23:55.942Z,0.00
2018-09-04T03:24:55.964Z,0.00
2018-09-04T03:25:55.982Z,0.00
2018-09-04T03:26:56.011Z,0.00
2018-09-04T03:27:56.024Z,0.00
2018-09-04T03:28:56.048Z,0.00
2018-09-04T03:29:56.066Z,0.00
2018-09-04T03:30:56.103Z,0.00
2018-09-04T03:31:56.106Z,0.00
2018-09-04T03:32:56.128Z,0.00
2018-09-04T03:33:56.156Z,0.00
2018-09-04T03:34:56.172Z,0.00
2018-09-04T03:35:56.195Z,0.00
2018-09-04T03:36:56.213Z,0.00
2018-09-04T03:37:56.246Z,0.00
2018-09-04T03:38:56.252Z,0.00
2018-09-04T03:39:56.269Z,0.00
2018-09-04T03:40:56.293Z,0.00
2018-09-04T03:41:56.325Z,0.00
2018-09-04T03:42:56.330Z,0.00
2018-09-04T03:43:56.360Z,0.00
2018-09-04T03:44:56.415Z,0.00
2018-09-04T03:45:56.399Z,0.00
2018-09-04T03:46:56.412Z,0.00
2018-09-04T03:47:56.439Z,0.00
2018-09-04T03:48:56.458Z,0.00
2018-09-04T03:49:56.479Z,0.00
2018-09-04T03:50:56.499Z,0.00
2018-09-04T03:51:56.521Z,0.00
2018-09-04T03:52:56.545Z,0.00
2018-09-04T03:53:56.557Z,0.00
2018-09-04T03:54:56.575Z,0.00
2018-09-04T03:55:56.600Z,0.00
2018-09-04T03:56:56.621Z,0.00
2018-09-04T03:57:56.642Z,0.00
2018-09-04T03:58:56.658Z,4.00
2018-09-04T03:59:56.685Z,4.00
2018-09-04T04:00:56.712Z,4.00
2018-09-04T04:01:56.721Z,4.00
2018-09-04T04:02:56.746Z,0.00
2018-09-04T04:03:56.761Z,0.00
2018-09-04T04:04:56.864Z,4.00
2018-09-04T04:05:56.817Z,4.00
2018-09-04T04:06:56.823Z,4.00
2018-09-04T04:07:56.858Z,4.00
2018-09-04T04:08:56.867Z,4.00
2018-09-04T04:09:56.890Z,4.00
2018-09-04T04:10:56.904Z,8.00
2018-09-04T04:11:56.945Z,8.00
2018-09-04T04:12:56.951Z,8.00
2018-09-04T04:13:56.966Z,12.00
2018-09-04T04:14:56.985Z,12.00
2018-09-04T04:15:57.004Z,12.00
2018-09-04T04:16:57.031Z,16.00
2018-09-04T04:17:57.048Z,20.00
2018-09-04T04:18:57.069Z,24.00
2018-09-04T04:19:57.088Z,28.00
2018-09-04T04:20:57.108Z,32.00
2018-09-04T04:21:57.127Z,36.00
2018-09-04T04:22:57.148Z,44.00
2018-09-04T04:23:57.214Z,48.00
2018-09-04T04:24:57.190Z,52.00
2018-09-04T04:25:57.209Z,60.00
2018-09-04T04:26:57.227Z,64.00
2018-09-04T04:27:57.250Z,72.00
2018-09-04T04:28:57.271Z,80.00
2018-09-04T04:29:57.289Z,88.00
2018-09-04T04:30:57.309Z,96.00
2018-09-04T04:31:57.330Z,104.00
2018-09-04T04:32:57.573Z,116.00
2018-09-04T04:33:57.371Z,132.00
2018-09-04T04:34:57.389Z,144.00
2018-09-04T04:35:57.411Z,156.00
2018-09-04T04:36:57.431Z,176.00
2018-09-04T04:37:57.452Z,196.00
2018-09-04T04:38:57.477Z,212.00
2018-09-04T04:39:57.509Z,236.00
2018-09-04T04:40:57.515Z,252.00
2018-09-04T04:41:57.530Z,280.00
2018-09-04T04:42:57.551Z,304.00
2018-09-04T04:43:57.572Z,340.00
2018-09-04T04:44:57.595Z,368.00
2018-09-04T04:45:57.622Z,400.00
2018-09-04T04:46:57.634Z,424.00
2018-09-04T04:47:57.734Z,452.00
2018-09-04T04:48:57.673Z,468.00
2018-09-04T04:49:57.693Z,488.00
2018-09-04T04:50:57.713Z,504.00
2018-09-04T04:51:57.736Z,528.00
2018-09-04T04:52:57.756Z,548.00
2018-09-04T04:53:57.778Z,572.00
2018-09-04T04:54:57.806Z,596.00
2018-09-04T04:55:57.813Z,616.00
2018-09-04T04:56:57.836Z,636.00
2018-09-04T04:57:57.855Z,664.00
2018-09-04T04:58:57.871Z,696.00
2018-09-04T04:59:57.893Z,740.00
2018-09-04T05:00:57.912Z,788.00
2018-09-04T05:01:57.937Z,840.00
2018-09-04T05:02:57.955Z,904.00
2018-09-04T05:03:57.977Z,980.00
2018-09-04T05:04:58.000Z,1068.00
2018-09-04T05:05:58.015Z,1152.00
2018-09-04T05:06:58.037Z,1256.00
2018-09-04T05:07:58.061Z,1380.00
2018-09-04T05:08:58.073Z,1512.00
2018-09-04T05:09:58.097Z,1640.00
2018-09-04T05:10:58.171Z,1732.00
2018-09-04T05:11:58.137Z,1800.00
2018-09-04T05:12:58.156Z,1848.00
2018-09-04T05:13:58.177Z,1904.00
2018-09-04T05:14:58.200Z,1976.00
2018-09-04T05:15:58.219Z,2052.00
2018-09-04T05:16:58.241Z,2124.00
2018-09-04T05:17:58.259Z,2188.00
2018-09-04T05:18:58.278Z,2248.00
2018-09-04T05:19:58.299Z,2324.00
2018-09-04T05:20:58.321Z,2412.00
2018-09-04T05:21:58.344Z,2532.00
2018-09-04T05:22:58.361Z,2668.00
2018-09-04T05:23:58.379Z,2772.00
2018-09-04T05:24:58.400Z,2884.00
2018-09-04T05:25:58.422Z,3020.00
2018-09-04T05:26:58.440Z,3160.00
2018-09-04T05:27:58.463Z,3312.00
2018-09-04T05:28:58.492Z,3488.00
2018-09-04T05:29:58.504Z,3740.00
2018-09-04T05:30:58.526Z,3952.00
2018-09-04T05:31:58.546Z,3980.00
2018-09-04T05:32:58.563Z,4160.00
2018-09-04T05:33:58.585Z,4348.00
2018-09-04T05:34:58.610Z,4548.00
2018-09-04T05:35:58.629Z,4764.00
2018-09-04T05:36:58.667Z,4960.00
2018-09-04T05:37:58.669Z,5116.00
2018-09-04T05:38:58.690Z,5284.00
2018-09-04T05:39:58.710Z,5460.00
2018-09-04T05:40:58.732Z,5576.00
2018-09-04T05:41:58.750Z,5756.00
2018-09-04T05:42:58.772Z,5896.00
2018-09-04T05:43:58.794Z,6088.00
2018-09-04T05:44:58.811Z,6480.00
2018-09-04T05:45:58.833Z,6876.00
2018-09-04T05:46:58.864Z,7112.00
2018-09-04T05:47:58.874Z,7216.00
2018-09-04T05:48:58.895Z,7156.00
2018-09-04T05:49:58.916Z,6852.00
2018-09-04T05:50:58.942Z,6804.00
2018-09-04T05:51:58.955Z,6888.00
2018-09-04T05:52:58.979Z,6984.00
2018-09-04T05:53:58.998Z,7064.00
2018-09-04T05:54:59.067Z,7028.00
2018-09-04T05:55:59.041Z,6972.00
2018-09-04T05:56:59.063Z,7004.00
2018-09-04T05:57:59.083Z,7012.00
2018-09-04T05:58:59.107Z,6996.00
2018-09-04T05:59:59.126Z,7020.00
2018-09-04T06:00:59.145Z,7196.00
2018-09-04T06:01:59.167Z,7440.00
2018-09-04T06:02:59.188Z,7940.00
2018-09-04T06:03:59.216Z,8396.00
2018-09-04T06:04:59.231Z,8852.00
2018-09-04T06:05:59.254Z,8848.00
2018-09-04T06:06:59.276Z,8132.00
2018-09-04T06:07:59.298Z,8056.00
2018-09-04T06:08:59.321Z,7860.00
2018-09-04T06:09:59.340Z,7604.00
2018-09-04T06:10:59.361Z,7588.00
2018-09-04T06:11:59.385Z,8076.00
2018-09-04T06:12:59.447Z,8292.00
2018-09-04T06:13:59.424Z,7788.00
2018-09-04T06:14:59.445Z,8408.00
2018-09-04T06:15:59.471Z,8804.00
2018-09-04T06:16:59.494Z,9004.00
2018-09-04T06:17:59.510Z,9120.00
2018-09-04T06:18:59.529Z,8840.00
2018-09-04T06:19:59.571Z,9112.00
2018-09-04T06:20:59.577Z,9552.00
2018-09-04T06:21:59.597Z,9724.00
2018-09-04T06:22:59.619Z,10856.00
2018-09-04T06:23:59.653Z,11168.00
2018-09-04T06:24:59.663Z,10548.00
2018-09-04T06:25:59.703Z,10680.00
2018-09-04T06:26:59.706Z,12836.00
2018-09-04T06:27:59.730Z,12640.00
2018-09-04T06:28:59.749Z,11908.00
2018-09-04T06:29:59.779Z,12712.00
2018-09-04T06:30:59.793Z,15324.00
2018-09-04T06:31:59.821Z,18368.00
2018-09-04T06:32:59.835Z,18272.00
2018-09-04T06:33:59.882Z,17728.00
2018-09-04T06:35:00.067Z,19328.00
2018-09-04T06:35:59.902Z,26336.00
2018-09-04T06:36:59.924Z,27840.00
2018-09-04T06:37:59.949Z,25536.00
2018-09-04T06:38:59.969Z,22752.00
2018-09-04T06:39:59.989Z,18752.00
2018-09-04T06:41:00.012Z,22944.00
2018-09-04T06:42:00.039Z,25760.00
2018-09-04T06:43:00.063Z,30080.00
2018-09-04T06:44:00.084Z,30560.00
2018-09-04T06:45:00.113Z,32800.00
2018-09-04T06:46:00.128Z,33408.00
2018-09-04T06:47:00.149Z,32704.00
2018-09-04T06:48:00.172Z,36160.00
2018-09-04T06:49:00.203Z,37760.00
2018-09-04T06:50:00.219Z,39392.00
2018-09-04T06:51:00.248Z,39264.00
2018-09-04T06:52:00.272Z,39168.00
2018-09-04T06:53:00.299Z,38368.00
2018-09-04T06:54:00.321Z,38336.00
2018-09-04T06:55:00.341Z,39040.00
2018-09-04T06:56:00.366Z,38656.00
2018-09-04T06:57:00.390Z,39424.00
2018-09-04T06:58:00.552Z,40544.00
2018-09-04T06:59:00.442Z,41088.00
2018-09-04T07:00:00.468Z,40736.00
2018-09-04T07:01:00.491Z,37792.00
2018-09-04T07:02:00.606Z,40096.00
2018-09-04T07:03:00.543Z,41856.00
2018-09-04T07:04:00.569Z,44640.00
2018-09-04T07:05:00.598Z,44320.00
2018-09-04T07:06:00.629Z,44864.00
2018-09-04T07:07:00.651Z,43648.00
2018-09-04T07:08:00.676Z,42016.00
2018-09-04T07:09:00.700Z,41408.00
2018-09-04T07:10:00.730Z,43040.00
2018-09-04T07:11:00.756Z,43968.00
2018-09-04T07:12:00.782Z,44960.00
2018-09-04T07:13:00.809Z,45504.00
2018-09-04T07:14:00.834Z,45792.00
2018-09-04T07:15:00.899Z,45472.00
2018-09-04T07:16:00.893Z,45856.00
2018-09-04T07:17:01.009Z,46368.00
2018-09-04T07:18:00.948Z,46464.00
2018-09-04T07:19:00.969Z,45440.00
2018-09-04T07:20:01.007Z,44672.00
2018-09-04T07:21:01.044Z,43328.00
2018-09-04T07:22:01.058Z,42112.00
2018-09-04T07:23:01.084Z,36800.00
2018-09-04T07:24:01.136Z,35552.00
2018-09-04T07:25:01.137Z,38784.00
2018-09-04T07:26:01.180Z,37632.00
2018-09-04T07:27:01.189Z,36032.00
2018-09-04T07:28:01.219Z,35520.00
2018-09-04T07:29:01.245Z,37760.00
2018-09-04T07:30:01.278Z,38272.00
2018-09-04T07:31:01.304Z,42272.00
2018-09-04T07:32:01.329Z,44352.00
2018-09-04T07:33:01.358Z,44768.00
2018-09-04T07:34:01.388Z,41952.00
2018-09-04T07:35:01.417Z,32608.00
2018-09-04T07:36:01.441Z,29792.00
2018-09-04T07:37:01.474Z,29472.00
2018-09-04T07:38:01.499Z,41472.00
2018-09-04T07:39:01.524Z,42112.00
2018-09-04T07:40:01.555Z,44224.00
2018-09-04T07:41:01.590Z,46144.00
2018-09-04T07:42:01.672Z,47808.00
2018-09-04T07:43:01.640Z,49024.00
2018-09-04T07:44:01.667Z,48768.00
2018-09-04T07:45:01.697Z,49632.00
2018-09-04T07:46:01.718Z,48928.00
2018-09-04T07:47:01.746Z,50080.00
2018-09-04T07:48:01.776Z,48544.00
2018-09-04T07:49:01.802Z,48416.00
2018-09-04T07:50:01.837Z,46016.00
2018-09-04T07:51:01.865Z,45152.00
2018-09-04T07:52:01.892Z,44320.00
2018-09-04T07:53:01.925Z,45440.00
2018-09-04T07:54:01.945Z,45120.00
2018-09-04T07:55:01.977Z,44160.00
2018-09-04T07:56:02.002Z,45248.00
2018-09-04T07:57:02.029Z,46144.00
2018-09-04T07:58:02.057Z,46816.00
2018-09-04T07:59:02.086Z,47744.00
2018-09-04T08:00:02.124Z,48224.00
2018-09-04T08:01:02.191Z,48704.00
2018-09-04T08:02:02.172Z,47808.00
2018-09-04T08:03:02.196Z,46816.00
2018-09-04T08:04:02.232Z,45856.00
2018-09-04T08:05:02.263Z,46656.00
2018-09-04T08:06:02.284Z,43360.00
2018-09-04T08:07:02.313Z,44512.00
2018-09-04T08:08:02.342Z,45472.00
2018-09-04T08:09:02.373Z,44864.00
2018-09-04T08:10:02.430Z,40192.00
2018-09-04T08:11:02.431Z,38304.00
2018-09-04T08:12:02.453Z,38176.00
2018-09-04T08:13:02.484Z,44416.00
2018-09-04T08:14:02.517Z,42720.00
2018-09-04T08:15:02.543Z,40672.00
2018-09-04T08:16:02.571Z,36640.00
2018-09-04T08:17:02.611Z,34464.00
2018-09-04T08:18:02.629Z,38880.00
2018-09-04T08:19:02.653Z,43744.00
2018-09-04T08:20:02.686Z,45536.00
2018-09-04T08:21:02.714Z,46432.00
2018-09-04T08:22:02.741Z,47808.00
2018-09-04T08:23:02.771Z,47264.00
2018-09-04T08:24:02.798Z,46976.00
2018-09-04T08:25:02.829Z,48288.00
2018-09-04T08:26:02.910Z,46976.00
2018-09-04T08:27:02.939Z,47776.00
2018-09-04T08:28:02.911Z,32928.00
2018-09-04T08:29:02.935Z,17808.00
2018-09-04T08:30:02.964Z,16504.00
2018-09-04T08:31:02.993Z,16144.00
2018-09-04T08:32:03.017Z,16064.00
2018-09-04T08:33:03.047Z,15572.00
2018-09-04T08:34:03.121Z,15436.00
2018-09-04T08:35:03.108Z,15424.00
2018-09-04T08:36:03.143Z,15372.00
2018-09-04T08:37:03.156Z,15464.00
2018-09-04T08:38:03.178Z,15392.00
2018-09-04T08:39:03.204Z,15140.00
2018-09-04T08:40:03.293Z,15076.00
2018-09-04T08:41:03.262Z,15212.00
2018-09-04T08:42:03.284Z,15428.00
2018-09-04T08:43:03.309Z,15460.00
2018-09-04T08:44:03.334Z,15488.00
2018-09-04T08:45:03.359Z,15444.00
2018-09-04T08:46:03.391Z,15344.00
2018-09-04T08:47:03.475Z,15236.00
2018-09-04T08:48:03.440Z,15104.00
2018-09-04T08:49:03.493Z,14960.00
2018-09-04T08:50:03.488Z,14780.00
2018-09-04T08:51:03.518Z,14608.00
2018-09-04T08:52:03.540Z,14368.00
2018-09-04T08:53:03.566Z,13920.00
2018-09-04T08:54:03.594Z,13856.00
2018-09-04T08:55:03.619Z,13868.00
2018-09-04T08:56:03.640Z,13784.00
2018-09-04T08:57:03.684Z,13664.00
2018-09-04T08:58:03.693Z,13640.00
2018-09-04T08:59:03.715Z,13468.00
2018-09-04T09:00:03.741Z,13296.00
2018-09-04T09:01:03.771Z,13120.00
2018-09-04T09:02:03.794Z,12980.00
2018-09-04T09:03:03.818Z,12864.00
2018-09-04T09:04:03.844Z,12776.00
2018-09-04T09:05:03.864Z,12676.00
2018-09-04T09:06:03.899Z,12572.00
2018-09-04T09:07:03.916Z,12652.00
2018-09-04T09:08:03.941Z,12628.00
2018-09-04T09:09:03.966Z,12528.00
2018-09-04T09:10:04.064Z,12228.00
2018-09-04T09:11:04.056Z,12504.00
2018-09-04T09:12:04.034Z,12592.00
2018-09-04T09:13:04.062Z,12600.00
2018-09-04T09:14:04.089Z,12568.00
2018-09-04T09:15:04.109Z,12584.00
2018-09-04T09:16:04.134Z,12560.00
2018-09-04T09:17:04.162Z,12524.00
2018-09-04T09:18:04.186Z,12468.00
2018-09-04T09:19:04.206Z,12428.00
2018-09-04T09:20:04.231Z,12372.00
2018-09-04T09:21:04.255Z,12320.00
2018-09-04T09:22:04.277Z,12264.00
2018-09-04T09:23:04.300Z,12176.00
2018-09-04T09:24:04.325Z,12076.00
2018-09-04T09:25:04.348Z,11868.00
2018-09-04T09:26:04.377Z,11652.00
2018-09-04T09:27:04.394Z,11668.00
2018-09-04T09:28:04.424Z,11664.00
2018-09-04T09:29:04.444Z,11724.00
2018-09-04T09:30:04.468Z,11724.00
2018-09-04T09:31:04.500Z,11732.00
2018-09-04T09:32:04.523Z,11668.00
2018-09-04T09:33:04.562Z,11572.00
2018-09-04T09:34:04.574Z,11484.00
2018-09-04T09:35:04.604Z,11356.00
2018-09-04T09:36:04.653Z,11184.00
2018-09-04T09:37:04.665Z,11124.00
2018-09-04T09:38:04.667Z,10892.00
2018-09-04T09:39:04.684Z,10904.00
2018-09-04T09:40:04.706Z,10988.00
2018-09-04T09:41:04.730Z,10996.00
2018-09-04T09:42:04.766Z,11248.00
2018-09-04T09:43:04.776Z,11292.00
2018-09-04T09:44:04.809Z,11284.00
2018-09-04T09:45:04.828Z,11272.00
2018-09-04T09:46:04.851Z,11264.00
2018-09-04T09:47:04.874Z,11228.00
2018-09-04T09:48:04.902Z,11228.00
2018-09-04T09:49:04.930Z,11192.00
2018-09-04T09:50:04.953Z,11192.00
2018-09-04T09:51:04.969Z,11140.00
2018-09-04T09:52:04.994Z,11100.00
2018-09-04T09:53:05.071Z,11068.00
2018-09-04T09:54:05.099Z,10980.00
2018-09-04T09:55:05.065Z,11004.00
2018-09-04T09:56:05.097Z,10972.00
2018-09-04T09:57:05.140Z,11012.00
2018-09-04T09:58:05.135Z,10948.00
2018-09-04T09:59:05.184Z,10872.00
2018-09-04T10:00:05.295Z,10720.00
2018-09-04T10:01:05.233Z,10400.00
2018-09-04T10:02:05.234Z,10232.00
2018-09-04T10:03:05.290Z,10396.00
2018-09-04T10:04:05.310Z,10468.00
2018-09-04T10:05:05.308Z,10348.00
2018-09-04T10:06:05.328Z,10240.00
2018-09-04T10:07:05.350Z,10440.00
2018-09-04T10:08:05.463Z,10328.00
2018-09-04T10:09:05.402Z,10216.00
2018-09-04T10:10:05.453Z,10200.00
2018-09-04T10:11:05.471Z,10264.00
2018-09-04T10:12:05.471Z,10292.00
2018-09-04T10:13:05.494Z,10344.00
2018-09-04T10:14:05.524Z,10396.00
2018-09-04T10:15:05.545Z,10380.00
2018-09-04T10:16:05.575Z,10332.00
2018-09-04T10:17:05.590Z,10256.00
2018-09-04T10:18:05.615Z,10184.00
2018-09-04T10:19:05.641Z,10148.00
2018-09-04T10:20:05.668Z,10140.00
2018-09-04T10:21:05.690Z,10108.00
2018-09-04T10:22:05.716Z,10072.00
2018-09-04T10:23:05.746Z,10020.00
2018-09-04T10:24:05.772Z,9968.00
2018-09-04T10:25:05.783Z,9908.00
2018-09-04T10:26:05.811Z,9888.00
2018-09-04T10:27:05.867Z,9852.00
2018-09-04T10:28:05.857Z,9784.00
2018-09-04T10:29:05.885Z,9736.00
2018-09-04T10:30:05.959Z,9676.00
2018-09-04T10:31:05.927Z,9640.00
2018-09-04T10:32:05.948Z,9636.00
2018-09-04T10:33:05.976Z,9620.00
2018-09-04T10:34:06.001Z,9576.00
2018-09-04T10:35:06.026Z,9308.00
2018-09-04T10:36:06.101Z,9824.00
2018-09-04T10:37:06.070Z,9964.00
2018-09-04T10:38:06.098Z,10144.00
2018-09-04T10:39:06.120Z,10268.00
2018-09-04T10:40:06.148Z,10436.00
2018-09-04T10:41:06.170Z,10396.00
2018-09-04T10:42:06.240Z,10216.00
2018-09-04T10:43:06.216Z,10040.00
2018-09-04T10:44:06.241Z,10016.00
2018-09-04T10:45:06.266Z,10068.00
2018-09-04T10:46:06.294Z,10256.00
2018-09-04T10:47:06.317Z,10532.00
2018-09-04T10:48:06.345Z,10876.00
2018-09-04T10:49:06.398Z,10988.00
2018-09-04T10:50:06.392Z,10900.00
2018-09-04T10:51:06.412Z,11068.00
2018-09-04T10:52:06.435Z,11248.00
2018-09-04T10:53:06.460Z,11236.00
2018-09-04T10:54:06.486Z,11292.00
2018-09-04T10:55:06.514Z,10964.00
2018-09-04T10:56:06.535Z,10548.00
2018-09-04T10:57:06.559Z,10288.00
2018-09-04T10:58:06.587Z,9800.00
2018-09-04T10:59:06.624Z,9608.00
2018-09-04T11:00:06.634Z,9524.00
2018-09-04T11:01:06.656Z,9440.00
2018-09-04T11:02:06.692Z,9432.00
2018-09-04T11:03:06.708Z,9256.00
2018-09-04T11:04:06.762Z,9256.00
2018-09-04T11:05:06.761Z,9160.00
2018-09-04T11:06:06.834Z,9828.00
2018-09-04T11:07:06.831Z,9808.00
2018-09-04T11:08:06.832Z,9436.00
2018-09-04T11:09:06.923Z,9552.00
2018-09-04T11:10:06.878Z,9340.00
2018-09-04T11:11:06.904Z,9188.00
2018-09-04T11:12:06.934Z,9008.00
2018-09-04T11:13:06.954Z,8920.00
2018-09-04T11:14:06.980Z,8868.00
2018-09-04T11:15:07.004Z,8232.00
2018-09-04T11:16:07.030Z,8988.00
2018-09-04T11:17:07.052Z,9120.00
2018-09-04T11:18:07.081Z,9280.00
2018-09-04T11:19:07.136Z,9432.00
2018-09-04T11:20:07.125Z,9608.00
2018-09-04T11:21:07.149Z,9644.00
2018-09-04T11:22:07.179Z,9716.00
2018-09-04T11:23:07.200Z,9736.00
2018-09-04T11:24:07.222Z,9604.00
2018-09-04T11:25:07.248Z,9428.00
2018-09-04T11:26:07.271Z,9344.00
2018-09-04T11:27:07.295Z,9220.00
2018-09-04T11:28:07.321Z,9252.00
2018-09-04T11:29:07.345Z,9184.00
2018-09-04T11:30:07.370Z,9180.00
2018-09-04T11:31:07.393Z,9248.00
2018-09-04T11:32:07.417Z,9364.00
2018-09-04T11:33:07.441Z,9436.00
2018-09-04T11:34:07.470Z,9420.00
2018-09-04T11:35:07.499Z,9552.00
2018-09-04T11:36:07.517Z,9728.00
2018-09-04T11:37:07.549Z,10184.00
2018-09-04T11:38:07.566Z,10276.00
2018-09-04T11:39:07.590Z,10192.00
2018-09-04T11:40:07.619Z,10028.00
2018-09-04T11:41:07.641Z,9912.00
2018-09-04T11:42:07.669Z,9916.00
2018-09-04T11:43:07.687Z,9944.00
2018-09-04T11:44:07.716Z,10020.00
2018-09-04T11:45:07.736Z,9924.00
2018-09-04T11:46:07.762Z,9912.00
2018-09-04T11:47:07.784Z,9868.00
2018-09-04T11:48:07.813Z,9916.00
2018-09-04T11:49:07.854Z,10016.00
2018-09-04T11:50:07.864Z,10024.00
2018-09-04T11:51:07.893Z,10044.00
2018-09-04T11:52:07.909Z,10072.00
2018-09-04T11:53:07.934Z,9948.00
2018-09-04T11:54:07.967Z,9872.00
2018-09-04T11:55:07.983Z,9792.00
2018-09-04T11:56:08.004Z,9836.00
2018-09-04T11:57:08.033Z,9852.00
2018-09-04T11:58:08.055Z,9724.00
2018-09-04T11:59:08.079Z,9584.00
2018-09-04T12:00:08.110Z,9564.00
2018-09-04T12:01:08.197Z,9584.00
2018-09-04T12:02:08.322Z,9684.00
2018-09-04T12:03:08.176Z,9956.00
2018-09-04T12:04:08.204Z,10248.00
2018-09-04T12:05:08.230Z,10644.00
2018-09-04T12:06:08.254Z,10964.00
2018-09-04T12:07:08.300Z,11192.00
2018-09-04T12:08:08.298Z,11336.00
2018-09-04T12:09:08.333Z,11156.00
2018-09-04T12:10:08.348Z,10980.00
2018-09-04T12:11:08.375Z,10896.00
2018-09-04T12:12:08.406Z,10684.00
2018-09-04T12:13:08.451Z,10428.00
2018-09-04T12:14:08.464Z,10120.00
2018-09-04T12:15:08.477Z,9804.00
2018-09-04T12:16:08.496Z,9720.00
2018-09-04T12:17:08.525Z,9680.00
2018-09-04T12:18:08.549Z,9388.00
2018-09-04T12:19:08.574Z,9164.00
2018-09-04T12:20:08.607Z,8936.00
2018-09-04T12:21:08.801Z,8652.00
2018-09-04T12:22:08.647Z,8588.00
2018-09-04T12:23:08.680Z,8296.00